sensor_id;sensor_type;location;lat;lon;timestamp;pressure;altitude;pressure_sealevel;temperature;humidity
66762;BME280;53672;48.176;16.338;2023-06-26T00:02:37;99292.75;;;18.64;61.12
66762;BME280;53672;48.176;16.338;2023-06-26T00:07:38;99286.47;;;18.57;61.20
66762;BME280;53672;48.176;16.338;2023-06-26T00:12:38;99291.41;;;18.66;61.04
66762;BME280;53672;48.176;16.338;2023-06-26T00:17:40;99296.63;;;18.63;60.78
66762;BME280;53672;48.176;16.338;2023-06-26T00:22:41;99302.78;;;18.53;61.20
66762;BME280;53672;48.176;16.338;2023-06-26T00:27:41;99298.56;;;18.51;61.30
66762;BME280;53672;48.176;16.338;2023-06-26T00:32:43;99297.59;;;18.45;61.52
66762;BME280;53672;48.176;16.338;2023-06-26T00:37:44;99297.56;;;18.34;61.76
66762;BME280;53672;48.176;16.338;2023-06-26T00:42:44;99289.22;;;18.22;62.06
66762;BME280;53672;48.176;16.338;2023-06-26T00:47:47;99287.16;;;18.06;62.57
66762;BME280;53672;48.176;16.338;2023-06-26T00:52:47;99285.81;;;17.85;63.37
66762;BME280;53672;48.176;16.338;2023-06-26T00:57:48;99285.94;;;17.90;62.85
66762;BME280;53672;48.176;16.338;2023-06-26T01:02:50;99281.94;;;17.98;62.60
66762;BME280;53672;48.176;16.338;2023-06-26T01:07:50;99275.41;;;17.81;63.28
66762;BME280;53672;48.176;16.338;2023-06-26T01:12:51;99271.28;;;17.42;64.31
66762;BME280;53672;48.176;16.338;2023-06-26T01:17:53;99275.97;;;17.12;65.43
66762;BME280;53672;48.176;16.338;2023-06-26T01:23:00;99275.84;;;16.89;66.29
66762;BME280;53672;48.176;16.338;2023-06-26T01:28:05;99279.25;;;16.73;67.03
66762;BME280;53672;48.176;16.338;2023-06-26T01:33:07;99280.09;;;16.55;67.88
66762;BME280;53672;48.176;16.338;2023-06-26T01:38:16;99274.63;;;16.48;67.78
66762;BME280;53672;48.176;16.338;2023-06-26T01:43:24;99275.34;;;16.37;68.00
66762;BME280;53672;48.176;16.338;2023-06-26T01:48:30;99272.69;;;16.06;69.56
66762;BME280;53672;48.176;16.338;2023-06-26T01:53:34;99267.69;;;16.15;69.27
66762;BME280;53672;48.176;16.338;2023-06-26T01:58:40;99266.88;;;16.14;69.04
66762;BME280;53672;48.176;16.338;2023-06-26T02:03:43;99263.16;;;16.02;70.03
66762;BME280;53672;48.176;16.338;2023-06-26T02:08:43;99248.41;;;15.83;70.11
66762;BME280;53672;48.176;16.338;2023-06-26T02:13:45;99254.88;;;15.71;71.39
66762;BME280;53672;48.176;16.338;2023-06-26T02:18:46;99247.66;;;15.70;70.90
66762;BME280;53672;48.176;16.338;2023-06-26T02:23:46;99254.75;;;15.66;71.52
66762;BME280;53672;48.176;16.338;2023-06-26T02:28:48;99264.72;;;15.67;71.10
66762;BME280;53672;48.176;16.338;2023-06-26T02:33:48;99263.97;;;15.53;71.68
66762;BME280;53672;48.176;16.338;2023-06-26T02:38:49;99260.84;;;15.43;72.32
66762;BME280;53672;48.176;16.338;2023-06-26T02:43:51;99264.91;;;15.41;72.15
66762;BME280;53672;48.176;16.338;2023-06-26T02:48:51;99261.94;;;15.36;72.56
66762;BME280;53672;48.176;16.338;2023-06-26T02:53:52;99261.13;;;15.29;72.54
66762;BME280;53672;48.176;16.338;2023-06-26T02:58:53;99260.84;;;15.37;72.38
66762;BME280;53672;48.176;16.338;2023-06-26T03:03:54;99266.56;;;15.42;72.31
66762;BME280;53672;48.176;16.338;2023-06-26T03:08:54;99269.28;;;15.48;72.04
66762;BME280;53672;48.176;16.338;2023-06-26T03:13:56;99274.44;;;15.45;72.22
66762;BME280;53672;48.176;16.338;2023-06-26T03:18:57;99272.53;;;15.45;72.13
66762;BME280;53672;48.176;16.338;2023-06-26T03:23:57;99278.03;;;15.52;71.80
66762;BME280;53672;48.176;16.338;2023-06-26T03:28:59;99279.28;;;15.56;71.69
66762;BME280;53672;48.176;16.338;2023-06-26T03:33:59;99288.50;;;15.43;71.91
66762;BME280;53672;48.176;16.338;2023-06-26T03:39:00;99282.22;;;15.61;71.42
66762;BME280;53672;48.176;16.338;2023-06-26T03:44:02;99284.72;;;15.69;71.09
66762;BME280;53672;48.176;16.338;2023-06-26T03:49:02;99281.25;;;15.73;71.01
66762;BME280;53672;48.176;16.338;2023-06-26T03:54:03;99289.69;;;15.85;70.81
66762;BME280;53672;48.176;16.338;2023-06-26T03:59:05;99292.63;;;15.90;70.49
66762;BME280;53672;48.176;16.338;2023-06-26T04:04:05;99293.16;;;16.05;69.80
66762;BME280;53672;48.176;16.338;2023-06-26T04:09:06;99298.22;;;16.08;69.99
66762;BME280;53672;48.176;16.338;2023-06-26T04:14:07;99295.66;;;16.31;69.09
66762;BME280;53672;48.176;16.338;2023-06-26T04:19:08;99300.63;;;16.47;68.63
66762;BME280;53672;48.176;16.338;2023-06-26T04:24:08;99298.50;;;16.86;67.11
66762;BME280;53672;48.176;16.338;2023-06-26T04:29:10;99306.03;;;17.15;65.76
66762;BME280;53672;48.176;16.338;2023-06-26T04:34:11;99302.28;;;17.39;65.17
66762;BME280;53672;48.176;16.338;2023-06-26T04:39:11;99298.59;;;17.45;65.09
66762;BME280;53672;48.176;16.338;2023-06-26T04:44:13;99298.59;;;17.86;63.74
66762;BME280;53672;48.176;16.338;2023-06-26T04:49:14;99295.97;;;18.15;62.28
66762;BME280;53672;48.176;16.338;2023-06-26T04:54:14;99305.81;;;18.40;62.00
66762;BME280;53672;48.176;16.338;2023-06-26T04:59:16;99310.28;;;18.53;61.25
66762;BME280;53672;48.176;16.338;2023-06-26T05:04:16;99300.69;;;18.95;59.92
66762;BME280;53672;48.176;16.338;2023-06-26T05:09:17;99311.50;;;19.31;58.64
66762;BME280;53672;48.176;16.338;2023-06-26T05:14:19;99304.94;;;19.37;58.48
66762;BME280;53672;48.176;16.338;2023-06-26T05:19:19;99303.63;;;19.85;57.65
66762;BME280;53672;48.176;16.338;2023-06-26T05:24:21;99298.38;;;20.33;55.98
66762;BME280;53672;48.176;16.338;2023-06-26T05:29:25;99309.22;;;20.68;54.90
66762;BME280;53672;48.176;16.338;2023-06-26T05:34:26;99314.13;;;20.61;54.94
66762;BME280;53672;48.176;16.338;2023-06-26T05:39:27;99306.16;;;20.86;53.63
66762;BME280;53672;48.176;16.338;2023-06-26T05:44:29;99309.19;;;21.23;53.81
66762;BME280;53672;48.176;16.338;2023-06-26T05:49:30;99311.91;;;21.61;52.44
66762;BME280;53672;48.176;16.338;2023-06-26T05:54:31;99310.47;;;21.85;50.96
66762;BME280;53672;48.176;16.338;2023-06-26T05:59:33;99304.25;;;22.37;49.85
66762;BME280;53672;48.176;16.338;2023-06-26T06:04:35;99303.13;;;22.69;49.30
66762;BME280;53672;48.176;16.338;2023-06-26T06:09:36;99304.13;;;23.00;48.11
66762;BME280;53672;48.176;16.338;2023-06-26T06:14:38;99303.78;;;23.43;47.63
66762;BME280;53672;48.176;16.338;2023-06-26T06:19:38;99294.41;;;23.85;46.03
66762;BME280;53672;48.176;16.338;2023-06-26T06:24:39;99303.97;;;24.24;44.64
66762;BME280;53672;48.176;16.338;2023-06-26T06:29:41;99298.41;;;24.54;43.88
66762;BME280;53672;48.176;16.338;2023-06-26T06:34:41;99297.50;;;24.94;43.21
66762;BME280;53672;48.176;16.338;2023-06-26T06:39:42;99299.66;;;25.22;41.04
66762;BME280;53672;48.176;16.338;2023-06-26T06:44:43;99305.47;;;25.51;39.58
66762;BME280;53672;48.176;16.338;2023-06-26T06:49:44;99296.38;;;25.74;40.03
66762;BME280;53672;48.176;16.338;2023-06-26T06:54:51;99304.97;;;25.93;38.16
66762;BME280;53672;48.176;16.338;2023-06-26T06:59:53;99297.06;;;26.39;39.00
66762;BME280;53672;48.176;16.338;2023-06-26T07:04:54;99295.69;;;26.65;36.85
66762;BME280;53672;48.176;16.338;2023-06-26T07:09:54;99287.97;;;26.47;37.43
66762;BME280;53672;48.176;16.338;2023-06-26T07:14:57;99295.25;;;26.81;37.83
66762;BME280;53672;48.176;16.338;2023-06-26T07:19:57;99291.47;;;27.20;36.53
66762;BME280;53672;48.176;16.338;2023-06-26T07:24:58;99290.03;;;27.22;36.07
66762;BME280;53672;48.176;16.338;2023-06-26T07:29:59;99296.84;;;27.63;35.52
66762;BME280;53672;48.176;16.338;2023-06-26T07:35:00;99306.13;;;27.88;34.94
66762;BME280;53672;48.176;16.338;2023-06-26T07:40:00;99299.47;;;27.97;34.15
66762;BME280;53672;48.176;16.338;2023-06-26T07:45:03;99293.75;;;28.40;34.51
66762;BME280;53672;48.176;16.338;2023-06-26T07:50:04;99291.00;;;28.34;33.50
66762;BME280;53672;48.176;16.338;2023-06-26T07:55:05;99295.56;;;28.49;33.58
66762;BME280;53672;48.176;16.338;2023-06-26T08:00:08;99294.88;;;28.71;31.79
66762;BME280;53672;48.176;16.338;2023-06-26T08:05:09;99286.13;;;28.72;32.60
66762;BME280;53672;48.176;16.338;2023-06-26T08:10:10;99286.19;;;28.99;31.65
66762;BME280;53672;48.176;16.338;2023-06-26T08:15:12;99291.63;;;29.23;31.10
66762;BME280;53672;48.176;16.338;2023-06-26T08:20:12;99295.97;;;29.48;30.52
66762;BME280;53672;48.176;16.338;2023-06-26T08:25:13;99289.03;;;29.67;30.01
66762;BME280;53672;48.176;16.338;2023-06-26T08:30:15;99287.47;;;29.61;29.41
66762;BME280;53672;48.176;16.338;2023-06-26T08:35:15;99290.88;;;29.99;29.19
66762;BME280;53672;48.176;16.338;2023-06-26T08:40:17;99284.16;;;30.45;28.26
66762;BME280;53672;48.176;16.338;2023-06-26T08:45:19;99271.19;;;30.74;26.88
66762;BME280;53672;48.176;16.338;2023-06-26T08:50:22;99273.47;;;30.94;26.82
66762;BME280;53672;48.176;16.338;2023-06-26T08:55:25;99276.41;;;31.59;26.21
66762;BME280;53672;48.176;16.338;2023-06-26T09:00:28;99266.47;;;31.88;25.97
66762;BME280;53672;48.176;16.338;2023-06-26T09:05:28;99257.66;;;32.32;24.43
66762;BME280;53672;48.176;16.338;2023-06-26T09:10:29;99255.88;;;33.08;24.41
66762;BME280;53672;48.176;16.338;2023-06-26T09:15:38;99254.69;;;34.05;24.13
66762;BME280;53672;48.176;16.338;2023-06-26T09:20:38;99243.88;;;33.90;23.93
66762;BME280;53672;48.176;16.338;2023-06-26T09:25:40;99237.63;;;35.03;22.91
66762;BME280;53672;48.176;16.338;2023-06-26T09:30:42;99237.47;;;34.88;23.30
66762;BME280;53672;48.176;16.338;2023-06-26T09:35:42;99240.88;;;35.74;21.25
66762;BME280;53672;48.176;16.338;2023-06-26T09:40:43;99233.66;;;37.28;20.49
66762;BME280;53672;48.176;16.338;2023-06-26T09:45:45;99231.09;;;38.81;18.07
66762;BME280;53672;48.176;16.338;2023-06-26T09:50:45;99226.44;;;38.00;18.59
66762;BME280;53672;48.176;16.338;2023-06-26T09:55:46;99222.81;;;39.66;16.71
66762;BME280;53672;48.176;16.338;2023-06-26T10:00:48;99225.56;;;41.99;14.66
66762;BME280;53672;48.176;16.338;2023-06-26T10:05:49;99221.44;;;41.93;14.83
66762;BME280;53672;48.176;16.338;2023-06-26T10:10:50;99209.84;;;40.98;14.26
66762;BME280;53672;48.176;16.338;2023-06-26T10:15:53;99198.00;;;40.70;15.75
66762;BME280;53672;48.176;16.338;2023-06-26T10:20:56;99199.31;;;42.22;13.79
66762;BME280;53672;48.176;16.338;2023-06-26T10:25:58;99185.63;;;41.50;14.75
66762;BME280;53672;48.176;16.338;2023-06-26T10:31:03;99183.56;;;43.23;13.24
66762;BME280;53672;48.176;16.338;2023-06-26T10:36:15;99180.91;;;45.17;11.68
66762;BME280;53672;48.176;16.338;2023-06-26T10:41:19;99172.88;;;45.87;10.70
66762;BME280;53672;48.176;16.338;2023-06-26T10:46:22;99168.63;;;45.95;10.38
66762;BME280;53672;48.176;16.338;2023-06-26T10:51:22;99173.72;;;45.84;11.23
66762;BME280;53672;48.176;16.338;2023-06-26T10:56:41;99165.56;;;48.00;8.55
66762;BME280;53672;48.176;16.338;2023-06-26T11:01:44;99152.88;;;48.49;8.02
66762;BME280;53672;48.176;16.338;2023-06-26T11:06:45;99159.59;;;48.85;8.48
66762;BME280;53672;48.176;16.338;2023-06-26T11:11:59;99159.97;;;48.09;8.53
66762;BME280;53672;48.176;16.338;2023-06-26T11:17:05;99151.66;;;47.88;9.23
66762;BME280;53672;48.176;16.338;2023-06-26T11:22:05;99155.59;;;50.66;6.84
66762;BME280;53672;48.176;16.338;2023-06-26T11:27:06;99147.63;;;49.64;7.02
66762;BME280;53672;48.176;16.338;2023-06-26T11:32:08;99138.84;;;48.64;7.86
66762;BME280;53672;48.176;16.338;2023-06-26T11:37:08;99137.72;;;48.38;7.78
66762;BME280;53672;48.176;16.338;2023-06-26T11:42:10;99129.38;;;47.77;8.50
66762;BME280;53672;48.176;16.338;2023-06-26T11:47:16;99118.91;;;49.30;7.34
66762;BME280;53672;48.176;16.338;2023-06-26T11:52:17;99130.22;;;50.88;6.40
66762;BME280;53672;48.176;16.338;2023-06-26T11:57:17;99124.03;;;49.26;7.44
66762;BME280;53672;48.176;16.338;2023-06-26T12:02:21;99120.00;;;49.36;7.62
66762;BME280;53672;48.176;16.338;2023-06-26T12:07:21;99112.97;;;49.01;7.94
66762;BME280;53672;48.176;16.338;2023-06-26T12:12:22;99109.63;;;50.66;6.93
66762;BME280;53672;48.176;16.338;2023-06-26T12:17:24;99109.59;;;50.54;6.94
66762;BME280;53672;48.176;16.338;2023-06-26T12:22:33;99102.16;;;49.79;7.43
66762;BME280;53672;48.176;16.338;2023-06-26T12:27:35;99094.94;;;49.23;8.21
66762;BME280;53672;48.176;16.338;2023-06-26T12:32:37;99083.31;;;49.96;7.24
66762;BME280;53672;48.176;16.338;2023-06-26T12:37:37;99078.09;;;49.75;6.93
66762;BME280;53672;48.176;16.338;2023-06-26T12:42:38;99076.84;;;48.95;7.87
66762;BME280;53672;48.176;16.338;2023-06-26T12:47:40;99069.91;;;48.18;7.87
66762;BME280;53672;48.176;16.338;2023-06-26T12:52:40;99077.50;;;45.45;10.59
66762;BME280;53672;48.176;16.338;2023-06-26T12:57:40;99065.78;;;42.46;13.17
66762;BME280;53672;48.176;16.338;2023-06-26T13:02:42;99068.66;;;39.85;15.61
66762;BME280;53672;48.176;16.338;2023-06-26T13:07:43;99075.50;;;38.53;16.95
66762;BME280;53672;48.176;16.338;2023-06-26T13:12:43;99061.13;;;37.53;18.22
66762;BME280;53672;48.176;16.338;2023-06-26T13:17:45;99062.59;;;36.93;18.63
66762;BME280;53672;48.176;16.338;2023-06-26T13:22:46;99060.91;;;36.77;19.57
66762;BME280;53672;48.176;16.338;2023-06-26T13:27:46;99063.47;;;36.66;19.94
66762;BME280;53672;48.176;16.338;2023-06-26T13:32:48;99047.94;;;36.20;20.04
66762;BME280;53672;48.176;16.338;2023-06-26T13:37:49;99044.53;;;35.87;20.38
66762;BME280;53672;48.176;16.338;2023-06-26T13:42:49;99039.19;;;35.58;21.09
66762;BME280;53672;48.176;16.338;2023-06-26T13:47:51;99022.28;;;35.01;21.79
66762;BME280;53672;48.176;16.338;2023-06-26T13:52:51;99024.19;;;34.73;21.96
66762;BME280;53672;48.176;16.338;2023-06-26T13:57:52;99030.38;;;34.75;22.17
66762;BME280;53672;48.176;16.338;2023-06-26T14:02:54;99012.25;;;34.34;22.83
66762;BME280;53672;48.176;16.338;2023-06-26T14:07:54;99012.38;;;34.26;22.49
66762;BME280;53672;48.176;16.338;2023-06-26T14:12:55;99007.16;;;33.83;23.55
66762;BME280;53672;48.176;16.338;2023-06-26T14:17:57;99013.06;;;33.78;23.85
66762;BME280;53672;48.176;16.338;2023-06-26T14:22:57;99007.06;;;33.59;24.30
66762;BME280;53672;48.176;16.338;2023-06-26T14:27:58;99004.94;;;33.35;24.65
66762;BME280;53672;48.176;16.338;2023-06-26T14:33:00;98998.88;;;33.37;24.69
66762;BME280;53672;48.176;16.338;2023-06-26T14:38:00;98999.66;;;33.25;24.51
66762;BME280;53672;48.176;16.338;2023-06-26T14:43:01;99002.09;;;32.85;25.43
66762;BME280;53672;48.176;16.338;2023-06-26T14:48:03;99002.91;;;32.65;26.17
66762;BME280;53672;48.176;16.338;2023-06-26T14:53:03;98994.59;;;32.52;25.59
66762;BME280;53672;48.176;16.338;2023-06-26T14:58:04;98995.94;;;32.16;25.79
66762;BME280;53672;48.176;16.338;2023-06-26T15:03:06;98978.97;;;31.91;26.86
66762;BME280;53672;48.176;16.338;2023-06-26T15:08:06;98978.19;;;31.64;27.10
66762;BME280;53672;48.176;16.338;2023-06-26T15:13:07;98967.53;;;31.61;26.93
66762;BME280;53672;48.176;16.338;2023-06-26T15:18:09;98965.72;;;31.57;27.53
66762;BME280;53672;48.176;16.338;2023-06-26T15:23:09;98960.00;;;31.48;27.64
66762;BME280;53672;48.176;16.338;2023-06-26T15:28:10;98964.53;;;31.49;27.21
66762;BME280;53672;48.176;16.338;2023-06-26T15:33:11;98962.84;;;31.48;27.14
66762;BME280;53672;48.176;16.338;2023-06-26T15:38:12;98955.19;;;31.40;27.32
66762;BME280;53672;48.176;16.338;2023-06-26T15:43:12;98951.34;;;31.36;27.79
66762;BME280;53672;48.176;16.338;2023-06-26T15:48:14;98946.50;;;31.28;27.27
66762;BME280;53672;48.176;16.338;2023-06-26T15:53:16;98932.31;;;30.94;26.77
66762;BME280;53672;48.176;16.338;2023-06-26T15:58:16;98927.50;;;30.86;27.08
66762;BME280;53672;48.176;16.338;2023-06-26T16:03:18;98919.66;;;30.74;27.38
66762;BME280;53672;48.176;16.338;2023-06-26T16:08:19;98923.06;;;30.28;27.60
66762;BME280;53672;48.176;16.338;2023-06-26T16:13:19;98911.91;;;30.32;27.98
66762;BME280;53672;48.176;16.338;2023-06-26T16:18:21;98910.97;;;29.97;29.02
66762;BME280;53672;48.176;16.338;2023-06-26T16:23:22;98906.84;;;30.03;29.05
66762;BME280;53672;48.176;16.338;2023-06-26T16:28:23;98909.66;;;30.03;29.46
66762;BME280;53672;48.176;16.338;2023-06-26T16:33:24;98902.09;;;29.90;28.60
66762;BME280;53672;48.176;16.338;2023-06-26T16:38:25;98898.88;;;29.83;29.37
66762;BME280;53672;48.176;16.338;2023-06-26T16:43:25;98899.19;;;29.73;29.09
66762;BME280;53672;48.176;16.338;2023-06-26T16:48:27;98893.81;;;29.63;29.75
66762;BME280;53672;48.176;16.338;2023-06-26T16:53:28;98896.94;;;29.31;29.12
66762;BME280;53672;48.176;16.338;2023-06-26T16:58:28;98886.34;;;29.14;29.36
66762;BME280;53672;48.176;16.338;2023-06-26T17:03:30;98885.66;;;29.09;29.60
66762;BME280;53672;48.176;16.338;2023-06-26T17:08:30;98880.59;;;28.97;29.82
66762;BME280;53672;48.176;16.338;2023-06-26T17:13:31;98882.91;;;28.95;29.72
66762;BME280;53672;48.176;16.338;2023-06-26T17:18:33;98882.69;;;28.91;30.36
66762;BME280;53672;48.176;16.338;2023-06-26T17:23:33;98885.28;;;28.79;30.23
66762;BME280;53672;48.176;16.338;2023-06-26T17:28:34;98875.34;;;28.68;30.48
66762;BME280;53672;48.176;16.338;2023-06-26T17:33:36;98885.09;;;28.62;30.88
66762;BME280;53672;48.176;16.338;2023-06-26T17:38:36;98879.06;;;28.55;30.86
66762;BME280;53672;48.176;16.338;2023-06-26T17:43:37;98870.00;;;28.45;31.39
66762;BME280;53672;48.176;16.338;2023-06-26T17:48:38;98870.72;;;28.37;31.59
66762;BME280;53672;48.176;16.338;2023-06-26T17:53:39;98873.69;;;28.18;31.94
66762;BME280;53672;48.176;16.338;2023-06-26T17:58:39;98877.25;;;28.10;31.86
66762;BME280;53672;48.176;16.338;2023-06-26T18:03:41;98877.69;;;28.03;32.07
66762;BME280;53672;48.176;16.338;2023-06-26T18:08:42;98877.47;;;27.86;32.78
66762;BME280;53672;48.176;16.338;2023-06-26T18:13:42;98875.69;;;27.77;32.65
66762;BME280;53672;48.176;16.338;2023-06-26T18:18:44;98884.41;;;27.67;33.63
66762;BME280;53672;48.176;16.338;2023-06-26T18:23:45;98876.94;;;27.57;33.46
66762;BME280;53672;48.176;16.338;2023-06-26T18:28:46;98883.38;;;27.30;36.12
66762;BME280;53672;48.176;16.338;2023-06-26T18:33:48;98884.00;;;26.95;38.23
66762;BME280;53672;48.176;16.338;2023-06-26T18:38:49;98890.31;;;26.55;38.65
66762;BME280;53672;48.176;16.338;2023-06-26T18:43:50;98887.53;;;26.31;39.48
66762;BME280;53672;48.176;16.338;2023-06-26T18:49:00;98882.88;;;26.21;40.26
66762;BME280;53672;48.176;16.338;2023-06-26T18:54:01;98893.03;;;25.99;41.13
66762;BME280;53672;48.176;16.338;2023-06-26T18:59:02;98894.97;;;25.80;42.04
66762;BME280;53672;48.176;16.338;2023-06-26T19:04:04;98905.22;;;25.66;42.44
66762;BME280;53672;48.176;16.338;2023-06-26T19:09:04;98906.31;;;25.46;43.34
66762;BME280;53672;48.176;16.338;2023-06-26T19:14:05;98908.81;;;25.24;43.85
66762;BME280;53672;48.176;16.338;2023-06-26T19:19:07;98916.50;;;25.08;44.47
66762;BME280;53672;48.176;16.338;2023-06-26T19:24:08;98920.81;;;24.96;45.02
66762;BME280;53672;48.176;16.338;2023-06-26T19:29:08;98913.69;;;24.74;45.65
66762;BME280;53672;48.176;16.338;2023-06-26T19:34:11;98919.44;;;24.59;45.93
66762;BME280;53672;48.176;16.338;2023-06-26T19:39:12;98916.72;;;24.44;46.51
66762;BME280;53672;48.176;16.338;2023-06-26T19:44:12;98920.13;;;24.31;46.62
66762;BME280;53672;48.176;16.338;2023-06-26T19:49:14;98909.53;;;24.23;46.78
66762;BME280;53672;48.176;16.338;2023-06-26T19:54:15;98904.53;;;24.15;46.83
66762;BME280;53672;48.176;16.338;2023-06-26T19:59:15;98908.53;;;23.99;47.42
66762;BME280;53672;48.176;16.338;2023-06-26T20:04:19;98901.31;;;23.88;47.62
66762;BME280;53672;48.176;16.338;2023-06-26T20:09:20;98909.19;;;23.76;48.03
66762;BME280;53672;48.176;16.338;2023-06-26T20:14:21;98909.75;;;23.68;48.05
66762;BME280;53672;48.176;16.338;2023-06-26T20:19:23;98900.56;;;23.52;48.52
66762;BME280;53672;48.176;16.338;2023-06-26T20:24:23;98892.19;;;23.42;48.89
66762;BME280;53672;48.176;16.338;2023-06-26T20:29:24;98893.63;;;23.29;49.57
66762;BME280;53672;48.176;16.338;2023-06-26T20:34:25;98890.00;;;23.19;49.75
66762;BME280;53672;48.176;16.338;2023-06-26T20:39:26;98894.22;;;23.11;49.99
66762;BME280;53672;48.176;16.338;2023-06-26T20:44:27;98890.84;;;23.04;50.06
66762;BME280;53672;48.176;16.338;2023-06-26T20:49:29;98891.41;;;22.96;50.48
66762;BME280;53672;48.176;16.338;2023-06-26T20:54:30;98873.22;;;22.88;50.23
66762;BME280;53672;48.176;16.338;2023-06-26T20:59:31;98875.19;;;22.78;51.01
66762;BME280;53672;48.176;16.338;2023-06-26T21:04:33;98868.47;;;22.69;51.04
66762;BME280;53672;48.176;16.338;2023-06-26T21:09:34;98865.69;;;22.69;50.89
66762;BME280;53672;48.176;16.338;2023-06-26T21:14:34;98861.22;;;22.63;51.55
66762;BME280;53672;48.176;16.338;2023-06-26T21:19:36;98863.72;;;22.54;51.79
66762;BME280;53672;48.176;16.338;2023-06-26T21:24:36;98861.47;;;22.46;52.19
66762;BME280;53672;48.176;16.338;2023-06-26T21:29:37;98865.66;;;22.39;52.35
66762;BME280;53672;48.176;16.338;2023-06-26T21:34:39;98862.56;;;22.40;52.28
66762;BME280;53672;48.176;16.338;2023-06-26T21:39:39;98860.91;;;22.34;52.19
66762;BME280;53672;48.176;16.338;2023-06-26T21:44:40;98858.06;;;22.29;52.69
66762;BME280;53672;48.176;16.338;2023-06-26T21:49:42;98858.63;;;22.21;53.34
66762;BME280;53672;48.176;16.338;2023-06-26T21:54:42;98860.56;;;22.05;53.93
66762;BME280;53672;48.176;16.338;2023-06-26T21:59:43;98862.75;;;21.93;54.17
66762;BME280;53672;48.176;16.338;2023-06-26T22:04:45;98848.22;;;21.91;54.33
66762;BME280;53672;48.176;16.338;2023-06-26T22:09:45;98856.28;;;21.83;55.05
66762;BME280;53672;48.176;16.338;2023-06-26T22:14:45;98838.13;;;21.75;55.56
66762;BME280;53672;48.176;16.338;2023-06-26T22:19:47;98838.38;;;21.69;55.75
66762;BME280;53672;48.176;16.338;2023-06-26T22:24:48;98849.22;;;21.60;55.70
66762;BME280;53672;48.176;16.338;2023-06-26T22:29:48;98825.44;;;21.58;56.17
66762;BME280;53672;48.176;16.338;2023-06-26T22:34:50;98826.50;;;21.46;56.57
66762;BME280;53672;48.176;16.338;2023-06-26T22:39:51;98815.59;;;21.40;56.71
66762;BME280;53672;48.176;16.338;2023-06-26T22:44:51;98813.06;;;21.33;56.80
66762;BME280;53672;48.176;16.338;2023-06-26T22:49:53;98811.09;;;21.29;57.20
66762;BME280;53672;48.176;16.338;2023-06-26T22:54:53;98807.69;;;21.17;57.82
66762;BME280;53672;48.176;16.338;2023-06-26T22:59:54;98796.75;;;21.10;58.10
66762;BME280;53672;48.176;16.338;2023-06-26T23:04:56;98804.84;;;21.07;58.99
66762;BME280;53672;48.176;16.338;2023-06-26T23:09:56;98800.09;;;21.07;58.84
66762;BME280;53672;48.176;16.338;2023-06-26T23:14:57;98799.53;;;21.00;60.08
66762;BME280;53672;48.176;16.338;2023-06-26T23:19:59;98806.47;;;21.03;59.45
66762;BME280;53672;48.176;16.338;2023-06-26T23:24:59;98824.88;;;20.99;60.12
66762;BME280;53672;48.176;16.338;2023-06-26T23:30:00;98859.25;;;21.04;60.56
66762;BME280;53672;48.176;16.338;2023-06-26T23:35:01;98879.59;;;21.00;60.31
66762;BME280;53672;48.176;16.338;2023-06-26T23:40:02;98866.47;;;20.95;60.10
66762;BME280;53672;48.176;16.338;2023-06-26T23:45:04;98870.66;;;20.98;59.70
66762;BME280;53672;48.176;16.338;2023-06-26T23:50:06;98867.06;;;21.02;59.77
66762;BME280;53672;48.176;16.338;2023-06-26T23:55:09;98862.84;;;21.00;59.44
